Latest Weather Observations for Warra

IDT60801

Issued at 5:02 pm EDT Wednesday 22 February 2017 (issued every 30 minutes, with the page automatically refreshed every 10 minutes)

About weather observations | Map of weather stations | Latest weather observations for TAS | Other Formats
Station Details ID: 097024 Name: WARRA Lat: -43.06 Lon: 146.70 Height: 495.0 m
Data from the previous 72 hours. | See also: Recent months at Warra
Date/Time
EDT
Temp
°C
App
Temp
°C
Dew
Point
°C
Rel
Hum
%
Delta-T
°C
Wind Press
QNH
hPa
Press
MSL
hPa
Rain since
9am
mm
Dir  Spd
km/h
Gust
km/h
Spd
kts
Gust
kts
22/05:00pm 24.2 21.7 8.2 36 8.7 NNE 11 20 6 11 - - 0.0
22/04:30pm 24.4 22.2 9.2 38 8.4 NNE 11 20 6 11 - - 0.0
22/04:00pm 23.8 21.7 9.8 41 7.8 ENE 11 17 6 9 - - 0.0
22/03:30pm 23.3 21.4 10.4 44 7.3 ENE 11 17 6 9 - - 0.0
22/03:00pm 22.6 21.1 10.4 46 6.8 NE 9 15 5 8 - - 0.0
22/02:30pm 21.7 20.8 11.4 52 5.9 NE 7 11 4 6 - - 0.0
22/02:00pm 21.0 19.3 9.9 49 6.1 NE 9 13 5 7 - - 0.0
22/01:30pm 19.0 17.4 10.3 57 4.8 NE 9 15 5 8 - - 0.0
22/01:00pm 19.1 17.8 10.1 56 4.9 NE 7 15 4 8 - - 0.0
22/12:30pm 17.7 16.4 9.8 60 4.3 NE 7 15 4 8 - - 0.0
22/12:00pm 16.6 15.0 8.6 59 4.2 ESE 7 11 4 6 - - 0.0
22/11:30am 17.1 15.6 9.0 59 4.3 E 7 11 4 6 - - 0.0
22/11:00am 16.4 15.2 9.6 64 3.6 ENE 6 9 3 5 - - 0.0
22/10:30am 14.5 13.2 9.1 70 2.8 ENE 6 11 3 6 - - 0.0
22/10:00am 12.9 11.3 8.2 73 2.4 NNE 6 9 3 5 - - 0.0
22/09:30am 11.4 9.0 6.9 74 2.2 N 9 15 5 8 - - 0.0
22/09:00am 11.2 8.8 8.6 84 1.3 N 11 17 6 9 - - 0.2
22/08:30am 9.5 7.0 8.4 93 0.5 N 11 15 6 8 - - 0.2
22/08:00am 9.7 8.0 9.7 100 0.0 N 9 13 5 7 - - 0.2
22/07:30am 8.4 5.9 8.4 100 0.0 N 11 17 6 9 - - 0.2
22/07:00am 6.4 3.5 6.4 100 0.0 N 11 15 6 8 - - 0.2
22/06:30am 6.0 3.4 6.0 100 0.0 N 9 11 5 6 - - 0.2
22/06:00am 4.5 2.0 4.5 100 0.0 NW 7 9 4 5 - - 0.2
22/05:30am 5.0 2.7 5.0 100 0.0 NW 6 7 3 4 - - 0.2
22/05:00am 5.5 3.2 5.5 100 0.0 N 7 9 4 5 - - 0.2
22/04:30am 5.8 3.1 5.8 100 0.0 N 9 11 5 6 - - 0.2
22/04:00am 5.3 2.9 5.3 100 0.0 N 7 9 4 5 - - 0.2
22/03:30am 6.0 3.4 6.0 100 0.0 N 9 11 5 6 - - 0.2
22/03:00am 4.9 2.4 4.9 100 0.0 N 7 9 4 5 - - 0.2
22/02:30am 4.6 3.4 4.6 100 0.0 CALM 0 4 0 2 - - 0.2
22/02:00am 5.1 2.7 5.1 100 0.0 W 7 9 4 5 - - 0.2
22/01:30am 4.6 3.4 4.6 100 0.0 CALM 0 0 0 0 - - 0.2
22/01:00am 6.4 5.2 6.4 100 0.0 NE 2 6 1 3 - - 0.2
22/12:30am 5.9 3.8 5.9 100 0.0 E 6 9 3 5 - - 0.2
22/12:00am 6.2 4.9 6.2 100 0.0 NE 2 7 1 4 - - 0.2
 
Date/Time
EDT
Temp
°C
App
Temp
°C
Dew
Point
°C
Rel
Hum
%
Delta-T
°C
Wind Press
QNH
hPa
Press
MSL
hPa
Rain since
9am
mm
Dir  Spd
km/h
Gust
km/h
Spd
kts
Gust
kts
21/11:30pm 5.4 4.3 5.3 99 0.0 CALM 0 0 0 0 - - 0.2
21/11:00pm 5.9 3.7 5.2 95 0.3 SSW 6 7 3 4 - - 0.2
21/10:30pm 6.3 4.8 5.1 92 0.5 W 2 6 1 3 - - 0.2
21/10:00pm 7.5 5.1 5.3 86 1.0 WSW 7 11 4 6 - - 0.2
21/09:30pm 8.6 6.0 5.9 83 1.3 W 9 15 5 8 - - 0.2
21/09:00pm 8.7 5.7 5.8 82 1.4 W 11 13 6 7 - - 0.2
21/08:30pm 9.1 6.4 5.7 79 1.6 W 9 13 5 7 - - 0.2
21/08:00pm 9.9 7.5 5.3 73 2.1 WSW 7 13 4 7 - - 0.2
21/07:30pm 11.8 9.4 5.4 65 3.0 W 7 13 4 7 - - 0.2
21/07:00pm 13.5 11.1 5.2 57 4.0 WNW 7 11 4 6 - - 0.2
21/06:30pm 14.2 10.9 4.5 52 4.6 W 11 20 6 11 - - 0.2
21/06:00pm 14.5 11.3 5.0 53 4.6 W 11 19 6 10 - - 0.2
21/05:30pm 14.7 11.5 5.2 53 4.6 WSW 11 20 6 11 - - 0.2
21/05:00pm 14.3 10.2 4.6 52 4.6 WSW 15 24 8 13 - - 0.2
21/04:30pm 14.9 10.9 5.1 52 4.7 W 15 26 8 14 - - 0.2
21/04:00pm 15.2 11.6 5.1 51 4.9 W 13 33 7 18 - - 0.2
21/03:30pm 14.8 10.8 5.1 52 4.7 W 15 32 8 17 - - 0.2
21/03:00pm 14.5 10.9 4.8 52 4.6 W 13 22 7 12 - - 0.2
21/02:30pm 14.5 10.1 5.0 53 4.6 W 17 26 9 14 - - 0.2
21/02:00pm 12.6 8.3 5.1 60 3.6 W 17 33 9 18 - - 0.2
21/01:30pm 13.0 8.2 4.9 58 3.8 W 19 32 10 17 - - 0.2
21/01:00pm 12.5 7.9 5.7 63 3.3 W 19 32 10 17 - - 0.2
21/12:30pm 12.9 9.3 5.1 59 3.7 WSW 13 30 7 16 - - 0.2
21/12:00pm 13.2 8.9 5.1 58 3.9 W 17 30 9 16 - - 0.2
21/11:30am 12.2 7.7 4.4 59 3.6 W 17 30 9 16 - - 0.2
21/11:00am 13.1 8.5 5.5 60 3.7 W 19 37 10 20 - - 0.0
21/10:30am 12.0 7.3 5.2 63 3.2 W 19 32 10 17 - - 0.0
21/10:00am 11.6 7.2 4.8 63 3.2 W 17 33 9 18 - - 0.0
21/09:30am 11.0 8.4 6.0 71 2.4 W 9 15 5 8 - - 0.0
21/09:00am 9.1 7.3 5.5 78 1.7 SW 4 9 2 5 - - 0.6
21/08:30am 9.0 6.7 4.8 75 1.9 WSW 6 13 3 7 - - 0.6
21/08:00am 9.6 6.9 5.8 77 1.8 WNW 9 17 5 9 - - 0.6
21/07:30am 8.6 6.0 5.9 83 1.3 WNW 9 17 5 9 - - 0.6
21/07:00am 7.6 4.9 5.4 86 1.0 WNW 9 17 5 9 - - 0.6
21/06:30am 7.5 5.2 5.6 88 0.9 WNW 7 11 4 6 - - 0.6
21/06:00am 7.3 5.0 5.6 89 0.8 W 7 13 4 7 - - 0.6
21/05:30am 7.8 4.4 6.1 89 0.8 W 13 24 7 13 - - 0.6
21/05:00am 7.8 4.8 5.8 87 0.9 W 11 22 6 12 - - 0.6
21/04:30am 7.9 4.9 5.9 87 0.9 W 11 20 6 11 - - 0.6
21/04:00am 7.6 3.7 5.4 86 1.0 W 15 26 8 14 - - 0.6
21/03:30am 7.5 3.6 5.5 87 0.9 W 15 28 8 15 - - 0.6
21/03:00am 7.3 3.8 5.3 87 0.9 WSW 13 22 7 12 - - 0.6
21/02:30am 7.5 4.0 5.3 86 1.0 W 13 26 7 14 - - 0.6
21/02:00am 7.0 4.2 5.0 87 0.9 W 9 15 5 8 - - 0.6
21/01:30am 6.7 4.2 5.0 89 0.8 NNW 7 11 4 6 - - 0.6
21/01:00am 7.8 5.5 5.8 87 0.9 W 7 13 4 7 - - 0.6
21/12:30am 8.0 4.5 5.5 84 1.2 WSW 13 24 7 13 - - 0.6
21/12:00am 8.7 5.0 6.2 84 1.2 WSW 15 28 8 15 - - 0.6
 
Date/Time
EDT
Temp
°C
App
Temp
°C
Dew
Point
°C
Rel
Hum
%
Delta-T
°C
Wind Press
QNH
hPa
Press
MSL
hPa
Rain since
9am
mm
Dir  Spd
km/h
Gust
km/h
Spd
kts
Gust
kts
20/11:30pm 8.6 5.3 6.6 87 1.0 WSW 13 20 7 11 - - 0.6
20/11:00pm 8.4 6.0 6.9 90 0.7 SW 9 19 5 10 - - 0.6
20/10:30pm 8.9 6.5 7.0 88 0.9 WSW 9 20 5 11 - - 0.6
20/10:00pm 9.3 7.6 7.6 89 0.8 SSW 6 9 3 5 - - 0.6
20/09:30pm 9.5 6.5 7.6 88 0.9 WSW 13 24 7 13 - - 0.6
20/09:00pm 9.7 7.6 8.3 91 0.7 SW 9 19 5 10 - - 0.6
20/08:30pm 9.8 7.5 7.4 85 1.2 SW 9 19 5 10 - - 0.6
20/08:00pm 9.9 6.9 7.5 85 1.2 SSW 13 26 7 14 - - 0.6
20/07:30pm 10.3 6.9 7.7 84 1.3 SSW 15 26 8 14 - - 0.6
20/07:00pm 10.8 8.8 8.7 87 1.1 SSW 9 15 5 8 - - 0.6
20/06:30pm 11.1 10.1 10.9 99 0.1 S 7 19 4 10 - - 0.6
20/06:00pm 11.2 10.1 10.6 96 0.3 SW 7 9 4 5 - - 0.6
20/05:30pm 10.7 8.6 9.9 95 0.4 S 11 22 6 12 - - 0.6
20/05:00pm 12.7 11.2 9.2 79 1.8 S 7 11 4 6 - - 0.2
20/04:30pm 13.1 11.2 9.0 76 2.1 SW 9 19 5 10 - - 0.2
20/04:00pm 12.8 9.7 8.9 77 2.0 SSW 15 28 8 15 - - 0.2
20/03:30pm 12.8 11.3 9.3 79 1.8 S 7 11 4 6 - - 0.2
20/03:00pm 14.7 12.7 8.6 67 3.2 S 9 17 5 9 - - 0.0
20/02:30pm 13.4 11.6 9.5 77 2.0 SW 9 17 5 9 - - 0.0
20/02:00pm 13.0 11.0 10.0 82 1.6 SW 11 17 6 9 - - 0.0
20/01:30pm 13.0 11.0 8.7 75 2.2 SSW 9 17 5 9 - - 0.0
20/01:00pm 13.5 11.7 8.1 70 2.8 WSW 7 20 4 11 - - 0.0
20/12:30pm 13.6 11.6 8.7 72 2.5 SW 9 19 5 10 - - 0.0
20/12:00pm 12.2 9.9 7.3 72 2.4 SW 9 17 5 9 - - 0.0
20/11:30am 12.3 10.5 8.0 75 2.2 S 7 11 4 6 - - 0.0
20/11:00am 11.4 10.1 7.5 77 1.9 SSW 4 11 2 6 - - 0.0
20/10:30am 11.2 10.0 8.1 81 1.6 NE 4 9 2 5 - - 0.0
20/10:00am 11.3 8.9 6.8 74 2.2 S 9 17 5 9 - - 0.0
20/09:30am 9.9 8.5 7.3 84 1.3 ESE 4 11 2 6 - - 0.0
20/09:00am 8.8 7.1 8.4 97 0.2 ESE 7 13 4 7 - - 1.0
20/08:30am 9.2 8.3 9.2 100 0.0 WSW 4 9 2 5 - - 1.0
20/08:00am 7.1 6.4 7.1 100 0.0 CALM 0 0 0 0 - - 1.0
20/07:30am 5.0 2.5 5.0 100 0.0 W 7 9 4 5 - - 1.0
20/07:00am 3.3 0.1 3.3 100 0.0 W 9 11 5 6 - - 1.0
20/06:30am 1.9 -0.5 1.9 100 0.0 W 4 9 2 5 - - 1.0
20/06:00am 2.1 -0.9 2.1 100 0.0 NW 7 9 4 5 - - 1.0
20/05:30am 2.2 0.6 2.2 100 0.0 CALM 0 0 0 0 - - 1.0
20/05:00am 2.5 -0.4 2.5 100 0.0 NW 7 7 4 4 - - 1.0
20/04:30am 2.7 0.0 2.7 100 0.0 W 6 7 3 4 - - 1.0
20/04:00am 2.5 0.5 2.5 100 0.0 WNW 2 6 1 3 - - 1.0
20/03:30am 2.9 1.4 2.9 100 0.0 CALM 0 6 0 3 - - 1.0
20/03:00am 3.3 0.5 3.3 100 0.0 NNW 7 11 4 6 - - 1.0
20/02:30am 4.4 2.4 4.3 99 0.0 W 4 7 2 4 - - 1.0
20/02:00am 5.3 3.1 5.2 99 0.0 N 6 9 3 5 - - 1.0
20/01:30am 5.9 3.2 5.8 99 0.0 WSW 9 11 5 6 - - 1.0
20/01:00am 5.4 2.6 5.3 99 0.0 W 9 11 5 6 - - 1.0
20/12:30am 5.6 2.9 5.5 99 0.0 NW 9 13 5 7 - - 1.0
20/12:00am 5.8 4.1 5.7 99 0.0 N 4 7 2 4 - - 1.0
 
Date/Time
EDT
Temp
°C
App
Temp
°C
Dew
Point
°C
Rel
Hum
%
Delta-T
°C
Wind Press
QNH
hPa
Press
MSL
hPa
Rain since
9am
mm
Dir  Spd
km/h
Gust
km/h
Spd
kts
Gust
kts
19/11:30pm 5.5 3.2 4.9 96 0.3 WSW 6 9 3 5 - - 1.0
19/11:00pm 5.6 3.0 4.4 92 0.5 N 7 9 4 5 - - 1.0
19/10:30pm 6.6 5.0 4.4 86 1.0 NW 2 7 1 4 - - 1.0
19/10:00pm 7.9 5.4 5.0 82 1.3 SW 7 11 4 6 - - 1.0
19/09:30pm 8.3 5.3 5.9 85 1.1 WNW 11 15 6 8 - - 1.0
19/09:00pm 8.5 5.9 6.0 84 1.2 NW 9 13 5 7 - - 1.0
19/08:30pm 9.0 7.0 6.3 83 1.3 SE 6 13 3 7 - - 1.0
19/08:00pm 9.6 7.6 6.3 80 1.6 SSE 6 9 3 5 - - 1.0
19/07:30pm 10.3 8.2 6.8 79 1.7 S 7 13 4 7 - - 1.0
19/07:00pm 10.6 8.1 6.4 75 2.0 SSE 9 13 5 7 - - 1.0
19/06:30pm 10.9 8.3 6.3 73 2.2 S 9 15 5 8 - - 1.0
19/06:00pm 10.6 8.4 5.4 70 2.4 S 6 9 3 5 - - 1.0
19/05:30pm 11.4 9.3 6.5 72 2.4 S 7 11 4 6 - - 1.0

Other Formats:

Comma delimited format used in spreadsheet applications
http://www.bom.gov.au/fwo/IDT60801/IDT60801.95962.axf

JavaScript Object Notation format (JSON) in row-major order
http://www.bom.gov.au/fwo/IDT60801/IDT60801.95962.json